Flight Track Log - Related Links

Times and Time Zones

All times are in EST time to prevent confusion due to time zone crossing. See the UCA6 flight status page for this flight to view local times or setup timezone preferences in your user account.

Time Position Orientation Groundspeed Altitude Reporting Facility
EST Latitude Longitude Course Direction KTS MPH feet Rate Location/Type
Wed 03:51:08 PM 41.4103 -81.8478 71° East 115 132 1,600  Level Cleveland Center
Wed 03:52:08 PM 41.4194 -81.8122 71° East 115 132 3,000 1,475 Climbing Cleveland Center
Wed 03:53:10 PM 41.4036 -81.7561 111° Southeast 152 175 4,600 1,452 Climbing Cleveland Center
Wed 03:54:12 PM 41.3761 -81.7014 124° Southeast 170 196 6,000 1,161 Climbing Cleveland Center
Wed 03:55:14 PM 41.3431 -81.6381 125° Southeast 197 227 7,000 1,113 Climbing Cleveland Center
Wed 03:56:16 PM 41.3072 -81.5728 126° Southeast 208 239 8,300 1,306 Climbing Cleveland Center
Wed 03:57:18 PM 41.2728 -81.5075 125° Southeast 209 241 9,700 1,306 Climbing Cleveland Center
Wed 03:58:20 PM 41.2342 -81.4364 126° Southeast 220 253 11,000 1,306 Climbing Cleveland Center
Wed 03:59:22 PM 41.2094 -81.3508 111° Southeast 223 257 12,400 1,200 Climbing Cleveland Center
Wed 04:00:25 PM 41.1942 -81.2631 103° East 236 272 13,500 1,152 Climbing Cleveland Center
Wed 04:01:27 PM 41.1769 -81.1736 104° East 244 281 14,800 1,210 Climbing Cleveland Center
Wed 04:02:29 PM 41.1594 -81.0825 104° East 248 285 16,000 1,113 Climbing Cleveland Center
Wed 04:03:31 PM 41.1411 -80.9889 105° East 257 296 17,100 919 Climbing Cleveland Center
Wed 04:04:33 PM 41.1217 -80.8914 105° East 261 300 17,900 919 Climbing Cleveland Center
Wed 04:05:35 PM 41.1033 -80.7953 104° East 265 305 19,000 1,065 Climbing Cleveland Center
Wed 04:06:37 PM 41.0800 -80.6786 105° East 270 311 20,100 1,016 Climbing Cleveland Center
Wed 04:07:39 PM 41.0606 -80.5808 105° East 271 312 21,100 968 Climbing Cleveland Center
Wed 04:08:41 PM 41.0417 -80.4831 104° East 272 313 22,100 864 Climbing Cleveland Center
Wed 04:09:44 PM 41.0219 -80.3861 105° East 272 313 22,900 432 Climbing Cleveland Center
Wed 04:10:46 PM 41.0011 -80.2828 105° East 288 331 23,000 48 Climbing Cleveland Center
Wed 04:11:48 PM 40.9778 -80.1689 105° East 315 362 23,000  Level Cleveland Center
Wed 04:12:50 PM 40.9544 -80.0522 105° East 324 373 23,000  Level Cleveland Center
Wed 04:13:52 PM 40.9253 -79.9089 105° East 331 381 23,000  Level Cleveland Center
Wed 04:14:54 PM 40.9006 -79.7900 105° East 332 382 23,000  Level Cleveland Center
Wed 04:15:56 PM 40.8767 -79.6697 105° East 334 384 23,000  Level Cleveland Center
Wed 04:16:58 PM 40.8508 -79.5494 106° East 337 388 23,000  Level Cleveland Center
Wed 04:18:00 PM 40.8258 -79.4289 105° East 339 390 23,000  Level Cleveland Center
Wed 04:19:02 PM 40.8006 -79.3064 105° East 341 392 23,000  Level Cleveland Center
Wed 04:20:05 PM 40.7697 -79.1619 106° East 342 394 23,000  Level Cleveland Center
Wed 04:21:07 PM 40.7436 -79.0400 106° East 342 394 23,000  Level Cleveland Center
Wed 04:22:09 PM 40.7175 -78.9189 106° East 343 395 23,000  Level Cleveland Center
Wed 04:23:11 PM 40.6917 -78.8022 106° East 338 389 23,000  Level Cleveland Center
Wed 04:24:13 PM 40.6672 -78.6817 105° East 339 390 23,000 -387 Level Cleveland Center
Wed 04:25:15 PM 40.6339 -78.5369 107° East 342 394 22,200 -871 Descending Cleveland Center
Wed 04:26:17 PM 40.6064 -78.4133 106° East 351 404 21,200 -968 Descending Cleveland Center
Wed 04:27:19 PM 40.5806 -78.2911 106° East 351 404 20,200 -1,016 Descending Cleveland Center
Wed 04:28:21 PM 40.5531 -78.1703 107° East 350 403 19,100 -1,104 Descending Cleveland Center
Wed 04:29:24 PM 40.5272 -78.0522 106° East 342 394 17,900 -1,152 Descending Cleveland Center
Wed 04:30:26 PM 40.4961 -77.9111 106° East 340 391 16,700 -1,161 Descending Cleveland Center
Wed 04:31:28 PM 40.4692 -77.7928 107° East 340 391 15,500 -1,161 Descending Cleveland Center
Wed 04:32:30 PM 40.4431 -77.6736 106° East 340 391 14,300 -1,258 Descending Cleveland Center
Wed 04:33:32 PM 40.4164 -77.5581 107° East 340 391 12,900 -1,355 Descending Cleveland Center
Wed 04:34:34 PM 40.3889 -77.4411 107° East 339 390 11,500 -1,500 Descending Cleveland Center
Wed 04:35:36 PM 40.3394 -77.3142 117° Southeast 333 383 9,800 -1,500 Descending Cleveland Center
Wed 04:36:38 PM 40.3008 -77.2142 117° Southeast 316 364 8,400 -1,306 Descending Cleveland Center
Wed 04:37:40 PM 40.2664 -77.1294 118° Southeast 298 343 7,100 -1,344 Descending Cleveland Center
Wed 04:38:43 PM 40.2172 -77.0228 121° Southeast 291 335 5,600 -1,008 Descending Cleveland Center
Wed 04:39:45 PM 40.1842 -76.9481 120° Southeast 251 289 5,000 -283 Descending Cleveland Center
Wed 04:40:50 PM 40.1511 -76.8814 123° Southeast 238 274 5,000 -192 Level New York Center
Wed 04:41:50 PM 40.1117 -76.7964 121° Southeast 233 268 4,600 -1,000 Descending New York Center
Wed 04:42:50 PM 40.1369 -76.7525 53° Northeast 157 181 3,000 -1,150 Descending New York Center
Wed 04:43:50 PM 40.1456 -76.7069 76° East 126 145 2,300 -700 Descending New York Center

Login

Don't have an account? Register now (free) for customized features, flight alerts, and more!